sensor_id;sensor_type;location;lat;lon;timestamp;P1;durP1;ratioP1;P2;durP2;ratioP2
18793;SDS011;29610;49.022;12.114;2023-07-29T00:00:05;11.27;;;5.80;;
18793;SDS011;29610;49.022;12.114;2023-07-29T00:02:40;10.60;;;5.10;;
18793;SDS011;29610;49.022;12.114;2023-07-29T00:05:11;10.20;;;5.30;;
18793;SDS011;29610;49.022;12.114;2023-07-29T00:07:40;12.07;;;5.50;;
18793;SDS011;29610;49.022;12.114;2023-07-29T00:10:08;12.90;;;5.70;;
18793;SDS011;29610;49.022;12.114;2023-07-29T00:12:37;11.50;;;5.97;;
18793;SDS011;29610;49.022;12.114;2023-07-29T00:15:07;11.00;;;5.57;;
18793;SDS011;29610;49.022;12.114;2023-07-29T00:17:37;17.40;;;7.13;;
18793;SDS011;29610;49.022;12.114;2023-07-29T00:20:07;11.43;;;5.87;;
18793;SDS011;29610;49.022;12.114;2023-07-29T00:22:36;11.83;;;6.33;;
18793;SDS011;29610;49.022;12.114;2023-07-29T00:25:04;13.10;;;6.47;;
18793;SDS011;29610;49.022;12.114;2023-07-29T00:27:34;11.27;;;5.80;;
18793;SDS011;29610;49.022;12.114;2023-07-29T00:30:03;14.10;;;7.53;;
18793;SDS011;29610;49.022;12.114;2023-07-29T00:32:35;14.00;;;6.77;;
18793;SDS011;29610;49.022;12.114;2023-07-29T00:35:05;13.77;;;7.10;;
18793;SDS011;29610;49.022;12.114;2023-07-29T00:37:36;12.60;;;6.37;;
18793;SDS011;29610;49.022;12.114;2023-07-29T00:40:07;14.43;;;7.67;;
18793;SDS011;29610;49.022;12.114;2023-07-29T00:42:43;14.80;;;6.87;;
18793;SDS011;29610;49.022;12.114;2023-07-29T00:45:11;13.47;;;6.33;;
18793;SDS011;29610;49.022;12.114;2023-07-29T00:47:42;11.63;;;6.10;;
18793;SDS011;29610;49.022;12.114;2023-07-29T00:50:11;14.00;;;6.43;;
18793;SDS011;29610;49.022;12.114;2023-07-29T00:52:42;14.17;;;7.37;;
18793;SDS011;29610;49.022;12.114;2023-07-29T00:55:11;15.23;;;6.37;;
18793;SDS011;29610;49.022;12.114;2023-07-29T00:57:40;13.80;;;6.73;;
18793;SDS011;29610;49.022;12.114;2023-07-29T01:00:15;14.37;;;7.50;;
18793;SDS011;29610;49.022;12.114;2023-07-29T01:02:45;16.80;;;6.77;;
18793;SDS011;29610;49.022;12.114;2023-07-29T01:05:14;11.07;;;6.10;;
18793;SDS011;29610;49.022;12.114;2023-07-29T01:07:47;10.87;;;5.73;;
18793;SDS011;29610;49.022;12.114;2023-07-29T01:10:30;13.77;;;6.80;;
18793;SDS011;29610;49.022;12.114;2023-07-29T01:13:10;14.97;;;6.47;;
18793;SDS011;29610;49.022;12.114;2023-07-29T01:15:47;14.10;;;7.03;;
18793;SDS011;29610;49.022;12.114;2023-07-29T01:18:26;14.87;;;7.50;;
18793;SDS011;29610;49.022;12.114;2023-07-29T01:20:59;13.73;;;6.63;;
18793;SDS011;29610;49.022;12.114;2023-07-29T01:23:36;13.87;;;7.07;;
18793;SDS011;29610;49.022;12.114;2023-07-29T01:26:05;12.10;;;6.80;;
18793;SDS011;29610;49.022;12.114;2023-07-29T01:28:33;13.40;;;6.80;;
18793;SDS011;29610;49.022;12.114;2023-07-29T01:31:06;14.57;;;6.73;;
18793;SDS011;29610;49.022;12.114;2023-07-29T01:33:47;14.63;;;7.57;;
18793;SDS011;29610;49.022;12.114;2023-07-29T01:36:25;16.80;;;7.87;;
18793;SDS011;29610;49.022;12.114;2023-07-29T01:39:02;13.00;;;7.23;;
18793;SDS011;29610;49.022;12.114;2023-07-29T01:41:31;18.70;;;8.23;;
18793;SDS011;29610;49.022;12.114;2023-07-29T01:44:01;17.80;;;8.90;;
18793;SDS011;29610;49.022;12.114;2023-07-29T01:46:33;15.77;;;8.80;;
18793;SDS011;29610;49.022;12.114;2023-07-29T01:49:02;17.80;;;9.17;;
18793;SDS011;29610;49.022;12.114;2023-07-29T01:51:31;21.37;;;10.10;;
18793;SDS011;29610;49.022;12.114;2023-07-29T01:54:01;15.33;;;8.67;;
18793;SDS011;29610;49.022;12.114;2023-07-29T01:56:31;16.40;;;8.97;;
18793;SDS011;29610;49.022;12.114;2023-07-29T01:59:00;16.80;;;9.93;;
18793;SDS011;29610;49.022;12.114;2023-07-29T02:01:29;18.10;;;10.63;;
18793;SDS011;29610;49.022;12.114;2023-07-29T02:03:58;21.30;;;10.67;;
18793;SDS011;29610;49.022;12.114;2023-07-29T02:06:27;20.60;;;11.83;;
18793;SDS011;29610;49.022;12.114;2023-07-29T02:08:55;20.83;;;11.33;;
18793;SDS011;29610;49.022;12.114;2023-07-29T02:11:25;17.93;;;10.17;;
18793;SDS011;29610;49.022;12.114;2023-07-29T02:13:55;20.57;;;12.20;;
18793;SDS011;29610;49.022;12.114;2023-07-29T02:16:25;22.30;;;13.40;;
18793;SDS011;29610;49.022;12.114;2023-07-29T02:18:54;24.20;;;12.07;;
18793;SDS011;29610;49.022;12.114;2023-07-29T02:21:23;22.73;;;12.83;;
18793;SDS011;29610;49.022;12.114;2023-07-29T02:23:52;23.07;;;12.63;;
18793;SDS011;29610;49.022;12.114;2023-07-29T02:26:20;29.17;;;14.83;;
18793;SDS011;29610;49.022;12.114;2023-07-29T02:28:51;21.70;;;12.73;;
18793;SDS011;29610;49.022;12.114;2023-07-29T02:31:20;26.73;;;14.27;;
18793;SDS011;29610;49.022;12.114;2023-07-29T02:33:52;29.63;;;14.67;;
18793;SDS011;29610;49.022;12.114;2023-07-29T02:36:21;30.97;;;16.43;;
18793;SDS011;29610;49.022;12.114;2023-07-29T02:38:50;31.00;;;17.73;;
18793;SDS011;29610;49.022;12.114;2023-07-29T02:41:18;30.33;;;18.10;;
18793;SDS011;29610;49.022;12.114;2023-07-29T02:43:48;30.47;;;16.10;;
18793;SDS011;29610;49.022;12.114;2023-07-29T02:46:19;27.37;;;16.10;;
18793;SDS011;29610;49.022;12.114;2023-07-29T02:48:48;32.77;;;16.10;;
18793;SDS011;29610;49.022;12.114;2023-07-29T02:51:17;26.50;;;15.17;;
18793;SDS011;29610;49.022;12.114;2023-07-29T02:53:46;31.83;;;17.37;;
18793;SDS011;29610;49.022;12.114;2023-07-29T02:56:15;32.50;;;16.70;;
18793;SDS011;29610;49.022;12.114;2023-07-29T02:58:43;35.20;;;18.70;;
18793;SDS011;29610;49.022;12.114;2023-07-29T03:01:12;33.03;;;18.70;;
18793;SDS011;29610;49.022;12.114;2023-07-29T03:03:42;33.00;;;18.60;;
18793;SDS011;29610;49.022;12.114;2023-07-29T03:06:13;26.43;;;15.80;;
18793;SDS011;29610;49.022;12.114;2023-07-29T03:08:43;29.30;;;17.20;;
18793;SDS011;29610;49.022;12.114;2023-07-29T03:11:13;30.23;;;18.37;;
18793;SDS011;29610;49.022;12.114;2023-07-29T03:13:43;26.93;;;15.50;;
18793;SDS011;29610;49.022;12.114;2023-07-29T03:16:13;32.23;;;17.60;;
18793;SDS011;29610;49.022;12.114;2023-07-29T03:18:55;32.90;;;17.77;;
18793;SDS011;29610;49.022;12.114;2023-07-29T03:21:24;30.70;;;17.20;;
18793;SDS011;29610;49.022;12.114;2023-07-29T03:23:52;42.87;;;20.17;;
18793;SDS011;29610;49.022;12.114;2023-07-29T03:26:21;36.37;;;19.47;;
18793;SDS011;29610;49.022;12.114;2023-07-29T03:28:50;35.53;;;18.80;;
18793;SDS011;29610;49.022;12.114;2023-07-29T03:31:19;36.93;;;20.30;;
18793;SDS011;29610;49.022;12.114;2023-07-29T03:33:47;41.23;;;20.30;;
18793;SDS011;29610;49.022;12.114;2023-07-29T03:36:18;40.23;;;20.57;;
18793;SDS011;29610;49.022;12.114;2023-07-29T03:38:47;46.77;;;23.40;;
18793;SDS011;29610;49.022;12.114;2023-07-29T03:41:15;43.37;;;22.00;;
18793;SDS011;29610;49.022;12.114;2023-07-29T03:43:44;48.00;;;22.37;;
18793;SDS011;29610;49.022;12.114;2023-07-29T03:46:13;51.33;;;22.83;;
18793;SDS011;29610;49.022;12.114;2023-07-29T03:48:45;47.17;;;22.47;;
18793;SDS011;29610;49.022;12.114;2023-07-29T03:51:13;48.63;;;23.43;;
18793;SDS011;29610;49.022;12.114;2023-07-29T03:53:44;54.00;;;25.67;;
18793;SDS011;29610;49.022;12.114;2023-07-29T03:56:12;53.97;;;23.67;;
18793;SDS011;29610;49.022;12.114;2023-07-29T03:58:41;51.30;;;24.20;;
18793;SDS011;29610;49.022;12.114;2023-07-29T04:01:11;55.17;;;25.50;;
18793;SDS011;29610;49.022;12.114;2023-07-29T04:03:40;55.20;;;26.00;;
18793;SDS011;29610;49.022;12.114;2023-07-29T04:06:09;61.17;;;27.80;;
18793;SDS011;29610;49.022;12.114;2023-07-29T04:08:38;51.83;;;24.03;;
18793;SDS011;29610;49.022;12.114;2023-07-29T04:11:09;51.50;;;26.30;;
18793;SDS011;29610;49.022;12.114;2023-07-29T04:13:37;62.87;;;28.60;;
18793;SDS011;29610;49.022;12.114;2023-07-29T04:16:07;52.63;;;26.33;;
18793;SDS011;29610;49.022;12.114;2023-07-29T04:18:35;62.07;;;28.40;;
18793;SDS011;29610;49.022;12.114;2023-07-29T04:21:04;66.23;;;29.50;;
18793;SDS011;29610;49.022;12.114;2023-07-29T04:23:33;60.33;;;28.30;;
18793;SDS011;29610;49.022;12.114;2023-07-29T04:26:02;64.90;;;27.90;;
18793;SDS011;29610;49.022;12.114;2023-07-29T04:28:32;65.67;;;31.70;;
18793;SDS011;29610;49.022;12.114;2023-07-29T04:31:01;61.97;;;28.67;;
18793;SDS011;29610;49.022;12.114;2023-07-29T04:33:31;63.07;;;26.63;;
18793;SDS011;29610;49.022;12.114;2023-07-29T04:36:03;60.63;;;27.20;;
18793;SDS011;29610;49.022;12.114;2023-07-29T04:38:32;57.13;;;27.83;;
18793;SDS011;29610;49.022;12.114;2023-07-29T04:41:01;58.73;;;27.23;;
18793;SDS011;29610;49.022;12.114;2023-07-29T04:43:35;59.50;;;28.60;;
18793;SDS011;29610;49.022;12.114;2023-07-29T04:46:06;58.23;;;28.47;;
18793;SDS011;29610;49.022;12.114;2023-07-29T04:48:35;58.00;;;26.73;;
18793;SDS011;29610;49.022;12.114;2023-07-29T04:51:04;54.13;;;24.93;;
18793;SDS011;29610;49.022;12.114;2023-07-29T04:53:33;54.17;;;24.87;;
18793;SDS011;29610;49.022;12.114;2023-07-29T04:56:03;53.23;;;25.67;;
18793;SDS011;29610;49.022;12.114;2023-07-29T04:58:32;54.00;;;26.63;;
18793;SDS011;29610;49.022;12.114;2023-07-29T05:01:03;51.50;;;24.83;;
18793;SDS011;29610;49.022;12.114;2023-07-29T05:03:32;47.70;;;24.00;;
18793;SDS011;29610;49.022;12.114;2023-07-29T05:06:01;45.23;;;22.97;;
18793;SDS011;29610;49.022;12.114;2023-07-29T05:08:30;43.00;;;22.67;;
18793;SDS011;29610;49.022;12.114;2023-07-29T05:10:59;48.90;;;23.93;;
18793;SDS011;29610;49.022;12.114;2023-07-29T05:13:28;46.60;;;23.23;;
18793;SDS011;29610;49.022;12.114;2023-07-29T05:15:57;53.13;;;24.47;;
18793;SDS011;29610;49.022;12.114;2023-07-29T05:18:27;41.53;;;22.23;;
18793;SDS011;29610;49.022;12.114;2023-07-29T05:20:56;48.00;;;21.57;;
18793;SDS011;29610;49.022;12.114;2023-07-29T05:23:25;37.83;;;20.37;;
18793;SDS011;29610;49.022;12.114;2023-07-29T05:25:53;31.27;;;18.53;;
18793;SDS011;29610;49.022;12.114;2023-07-29T05:28:22;36.80;;;20.03;;
18793;SDS011;29610;49.022;12.114;2023-07-29T05:30:51;28.80;;;16.43;;
18793;SDS011;29610;49.022;12.114;2023-07-29T05:33:20;26.33;;;16.00;;
18793;SDS011;29610;49.022;12.114;2023-07-29T05:35:50;26.20;;;16.00;;
18793;SDS011;29610;49.022;12.114;2023-07-29T05:38:22;23.83;;;13.03;;
18793;SDS011;29610;49.022;12.114;2023-07-29T05:40:51;21.40;;;12.90;;
18793;SDS011;29610;49.022;12.114;2023-07-29T05:43:19;19.90;;;12.00;;
18793;SDS011;29610;49.022;12.114;2023-07-29T05:45:48;16.50;;;9.33;;
18793;SDS011;29610;49.022;12.114;2023-07-29T05:48:18;15.10;;;9.40;;
18793;SDS011;29610;49.022;12.114;2023-07-29T05:50:47;13.83;;;8.47;;
18793;SDS011;29610;49.022;12.114;2023-07-29T05:53:18;15.53;;;8.67;;
18793;SDS011;29610;49.022;12.114;2023-07-29T05:55:47;11.70;;;6.70;;
18793;SDS011;29610;49.022;12.114;2023-07-29T05:58:16;11.80;;;7.40;;
18793;SDS011;29610;49.022;12.114;2023-07-29T06:00:46;11.90;;;6.63;;
18793;SDS011;29610;49.022;12.114;2023-07-29T06:03:17;14.33;;;7.00;;
18793;SDS011;29610;49.022;12.114;2023-07-29T06:05:46;11.40;;;5.73;;
18793;SDS011;29610;49.022;12.114;2023-07-29T06:08:21;11.57;;;5.87;;
18793;SDS011;29610;49.022;12.114;2023-07-29T06:10:50;11.43;;;5.20;;
18793;SDS011;29610;49.022;12.114;2023-07-29T06:13:19;10.87;;;5.37;;
18793;SDS011;29610;49.022;12.114;2023-07-29T06:15:48;9.10;;;4.30;;
18793;SDS011;29610;49.022;12.114;2023-07-29T06:18:18;10.30;;;5.17;;
18793;SDS011;29610;49.022;12.114;2023-07-29T06:20:46;11.63;;;5.03;;
18793;SDS011;29610;49.022;12.114;2023-07-29T06:23:15;11.33;;;5.07;;
18793;SDS011;29610;49.022;12.114;2023-07-29T06:25:46;10.60;;;5.10;;
18793;SDS011;29610;49.022;12.114;2023-07-29T06:28:14;11.37;;;4.80;;
18793;SDS011;29610;49.022;12.114;2023-07-29T06:30:43;12.50;;;4.03;;
18793;SDS011;29610;49.022;12.114;2023-07-29T06:33:12;9.40;;;4.00;;
18793;SDS011;29610;49.022;12.114;2023-07-29T06:35:41;8.70;;;3.97;;
18793;SDS011;29610;49.022;12.114;2023-07-29T06:38:09;12.57;;;3.57;;
18793;SDS011;29610;49.022;12.114;2023-07-29T06:40:38;14.10;;;3.63;;
18793;SDS011;29610;49.022;12.114;2023-07-29T06:43:08;10.10;;;3.67;;
18793;SDS011;29610;49.022;12.114;2023-07-29T06:45:37;8.60;;;3.37;;
18793;SDS011;29610;49.022;12.114;2023-07-29T06:48:06;8.10;;;3.13;;
18793;SDS011;29610;49.022;12.114;2023-07-29T06:50:34;7.83;;;2.70;;
18793;SDS011;29610;49.022;12.114;2023-07-29T06:53:03;8.73;;;3.20;;
18793;SDS011;29610;49.022;12.114;2023-07-29T06:55:32;8.73;;;3.07;;
18793;SDS011;29610;49.022;12.114;2023-07-29T06:58:01;8.67;;;3.27;;
18793;SDS011;29610;49.022;12.114;2023-07-29T07:00:31;9.87;;;2.83;;
18793;SDS011;29610;49.022;12.114;2023-07-29T07:03:00;12.90;;;2.90;;
18793;SDS011;29610;49.022;12.114;2023-07-29T07:05:29;9.23;;;3.03;;
18793;SDS011;29610;49.022;12.114;2023-07-29T07:07:57;8.83;;;3.13;;
18793;SDS011;29610;49.022;12.114;2023-07-29T07:10:26;8.13;;;2.80;;
18793;SDS011;29610;49.022;12.114;2023-07-29T07:12:55;9.70;;;3.30;;
18793;SDS011;29610;49.022;12.114;2023-07-29T07:15:24;9.43;;;2.97;;
18793;SDS011;29610;49.022;12.114;2023-07-29T07:17:54;11.70;;;4.03;;
18793;SDS011;29610;49.022;12.114;2023-07-29T07:20:23;9.10;;;3.53;;
18793;SDS011;29610;49.022;12.114;2023-07-29T07:22:52;10.40;;;3.80;;
18793;SDS011;29610;49.022;12.114;2023-07-29T07:25:20;9.20;;;3.47;;
18793;SDS011;29610;49.022;12.114;2023-07-29T07:27:49;17.70;;;3.77;;
18793;SDS011;29610;49.022;12.114;2023-07-29T07:30:18;9.90;;;3.90;;
18793;SDS011;29610;49.022;12.114;2023-07-29T07:32:47;11.53;;;4.10;;
18793;SDS011;29610;49.022;12.114;2023-07-29T07:35:18;9.53;;;3.57;;
18793;SDS011;29610;49.022;12.114;2023-07-29T07:37:47;11.93;;;5.47;;
18793;SDS011;29610;49.022;12.114;2023-07-29T07:40:16;9.67;;;4.23;;
18793;SDS011;29610;49.022;12.114;2023-07-29T07:42:45;11.23;;;5.10;;
18793;SDS011;29610;49.022;12.114;2023-07-29T07:45:14;11.70;;;4.80;;
18793;SDS011;29610;49.022;12.114;2023-07-29T07:47:44;11.90;;;3.97;;
18793;SDS011;29610;49.022;12.114;2023-07-29T07:50:13;9.87;;;4.10;;
18793;SDS011;29610;49.022;12.114;2023-07-29T07:52:43;10.37;;;4.50;;
18793;SDS011;29610;49.022;12.114;2023-07-29T07:55:12;9.30;;;4.50;;
18793;SDS011;29610;49.022;12.114;2023-07-29T07:57:41;11.33;;;3.93;;
18793;SDS011;29610;49.022;12.114;2023-07-29T08:00:10;10.90;;;3.93;;
18793;SDS011;29610;49.022;12.114;2023-07-29T08:02:43;9.67;;;3.33;;
18793;SDS011;29610;49.022;12.114;2023-07-29T08:05:12;9.77;;;3.77;;
18793;SDS011;29610;49.022;12.114;2023-07-29T08:07:41;9.23;;;3.63;;
18793;SDS011;29610;49.022;12.114;2023-07-29T08:10:11;9.70;;;3.63;;
18793;SDS011;29610;49.022;12.114;2023-07-29T08:12:40;10.57;;;3.60;;
18793;SDS011;29610;49.022;12.114;2023-07-29T08:15:08;10.93;;;3.97;;
18793;SDS011;29610;49.022;12.114;2023-07-29T08:17:37;12.03;;;3.80;;
18793;SDS011;29610;49.022;12.114;2023-07-29T08:20:06;10.00;;;4.17;;
18793;SDS011;29610;49.022;12.114;2023-07-29T08:22:36;19.63;;;5.50;;
18793;SDS011;29610;49.022;12.114;2023-07-29T08:25:05;12.67;;;5.40;;
18793;SDS011;29610;49.022;12.114;2023-07-29T08:27:36;18.80;;;5.30;;
18793;SDS011;29610;49.022;12.114;2023-07-29T08:30:05;14.57;;;6.00;;
18793;SDS011;29610;49.022;12.114;2023-07-29T08:32:35;12.57;;;5.27;;
18793;SDS011;29610;49.022;12.114;2023-07-29T08:35:04;16.13;;;5.73;;
18793;SDS011;29610;49.022;12.114;2023-07-29T08:37:35;10.93;;;4.80;;
18793;SDS011;29610;49.022;12.114;2023-07-29T08:40:04;11.00;;;4.90;;
18793;SDS011;29610;49.022;12.114;2023-07-29T08:42:36;11.20;;;5.10;;
18793;SDS011;29610;49.022;12.114;2023-07-29T08:45:09;15.33;;;4.90;;
18793;SDS011;29610;49.022;12.114;2023-07-29T08:47:39;10.60;;;4.10;;
18793;SDS011;29610;49.022;12.114;2023-07-29T08:50:08;12.07;;;4.43;;
18793;SDS011;29610;49.022;12.114;2023-07-29T08:52:40;11.93;;;5.00;;
18793;SDS011;29610;49.022;12.114;2023-07-29T08:55:11;16.23;;;4.50;;
18793;SDS011;29610;49.022;12.114;2023-07-29T08:57:41;9.10;;;3.93;;
18793;SDS011;29610;49.022;12.114;2023-07-29T09:00:11;12.63;;;4.93;;
18793;SDS011;29610;49.022;12.114;2023-07-29T09:02:43;9.77;;;4.67;;
18793;SDS011;29610;49.022;12.114;2023-07-29T09:05:12;10.83;;;4.80;;
18793;SDS011;29610;49.022;12.114;2023-07-29T09:07:41;10.70;;;4.63;;
18793;SDS011;29610;49.022;12.114;2023-07-29T09:10:13;9.23;;;4.40;;
18793;SDS011;29610;49.022;12.114;2023-07-29T09:12:43;12.07;;;6.13;;
18793;SDS011;29610;49.022;12.114;2023-07-29T09:15:12;13.33;;;5.27;;
18793;SDS011;29610;49.022;12.114;2023-07-29T09:17:53;12.40;;;4.70;;
18793;SDS011;29610;49.022;12.114;2023-07-29T09:20:27;10.93;;;4.97;;
18793;SDS011;29610;49.022;12.114;2023-07-29T09:22:58;32.90;;;7.60;;
18793;SDS011;29610;49.022;12.114;2023-07-29T09:25:29;10.00;;;5.10;;
18793;SDS011;29610;49.022;12.114;2023-07-29T09:27:59;11.17;;;5.90;;
18793;SDS011;29610;49.022;12.114;2023-07-29T09:30:29;10.27;;;5.00;;
18793;SDS011;29610;49.022;12.114;2023-07-29T09:32:58;10.60;;;4.80;;
18793;SDS011;29610;49.022;12.114;2023-07-29T09:35:27;10.30;;;4.50;;
18793;SDS011;29610;49.022;12.114;2023-07-29T09:38:00;9.23;;;3.80;;
18793;SDS011;29610;49.022;12.114;2023-07-29T09:40:33;24.87;;;4.40;;
18793;SDS011;29610;49.022;12.114;2023-07-29T09:43:06;9.63;;;3.80;;
18793;SDS011;29610;49.022;12.114;2023-07-29T09:45:37;10.03;;;3.40;;
18793;SDS011;29610;49.022;12.114;2023-07-29T09:48:06;8.50;;;3.17;;
18793;SDS011;29610;49.022;12.114;2023-07-29T09:50:39;8.70;;;3.10;;
18793;SDS011;29610;49.022;12.114;2023-07-29T09:53:09;9.63;;;2.93;;
18793;SDS011;29610;49.022;12.114;2023-07-29T09:55:38;7.60;;;2.70;;
18793;SDS011;29610;49.022;12.114;2023-07-29T09:58:09;7.00;;;2.03;;
18793;SDS011;29610;49.022;12.114;2023-07-29T10:00:38;9.87;;;2.87;;
18793;SDS011;29610;49.022;12.114;2023-07-29T10:03:08;7.83;;;2.70;;
18793;SDS011;29610;49.022;12.114;2023-07-29T10:05:37;8.20;;;2.50;;
18793;SDS011;29610;49.022;12.114;2023-07-29T10:08:06;7.30;;;2.10;;
18793;SDS011;29610;49.022;12.114;2023-07-29T10:10:38;7.70;;;2.50;;
18793;SDS011;29610;49.022;12.114;2023-07-29T10:13:10;11.30;;;2.87;;
18793;SDS011;29610;49.022;12.114;2023-07-29T10:15:40;9.90;;;2.87;;
18793;SDS011;29610;49.022;12.114;2023-07-29T10:18:11;9.37;;;2.83;;
18793;SDS011;29610;49.022;12.114;2023-07-29T10:20:41;9.57;;;2.70;;
18793;SDS011;29610;49.022;12.114;2023-07-29T10:23:12;8.47;;;3.20;;
18793;SDS011;29610;49.022;12.114;2023-07-29T10:25:46;9.97;;;3.50;;
18793;SDS011;29610;49.022;12.114;2023-07-29T10:28:25;10.77;;;3.47;;
18793;SDS011;29610;49.022;12.114;2023-07-29T10:30:58;13.00;;;3.83;;
18793;SDS011;29610;49.022;12.114;2023-07-29T10:33:27;10.80;;;3.53;;
18793;SDS011;29610;49.022;12.114;2023-07-29T10:35:59;10.27;;;4.10;;
18793;SDS011;29610;49.022;12.114;2023-07-29T10:38:29;9.33;;;3.60;;
18793;SDS011;29610;49.022;12.114;2023-07-29T10:40:58;12.23;;;4.70;;
18793;SDS011;29610;49.022;12.114;2023-07-29T10:43:32;11.37;;;4.60;;
18793;SDS011;29610;49.022;12.114;2023-07-29T10:46:15;10.53;;;4.90;;
18793;SDS011;29610;49.022;12.114;2023-07-29T10:48:51;10.23;;;4.77;;
18793;SDS011;29610;49.022;12.114;2023-07-29T10:51:25;11.37;;;4.50;;
18793;SDS011;29610;49.022;12.114;2023-07-29T10:54:01;11.60;;;4.60;;
18793;SDS011;29610;49.022;12.114;2023-07-29T10:56:40;10.73;;;4.10;;
18793;SDS011;29610;49.022;12.114;2023-07-29T10:59:32;9.73;;;3.93;;
18793;SDS011;29610;49.022;12.114;2023-07-29T11:02:01;8.50;;;3.37;;
18793;SDS011;29610;49.022;12.114;2023-07-29T11:04:45;10.87;;;4.13;;
18793;SDS011;29610;49.022;12.114;2023-07-29T11:07:22;12.40;;;3.50;;
18793;SDS011;29610;49.022;12.114;2023-07-29T11:09:56;9.50;;;3.10;;
18793;SDS011;29610;49.022;12.114;2023-07-29T11:12:34;8.87;;;2.73;;
18793;SDS011;29610;49.022;12.114;2023-07-29T11:15:15;8.73;;;2.90;;
18793;SDS011;29610;49.022;12.114;2023-07-29T11:17:50;7.57;;;2.50;;
18793;SDS011;29610;49.022;12.114;2023-07-29T11:20:26;7.20;;;2.40;;
18793;SDS011;29610;49.022;12.114;2023-07-29T11:22:58;7.83;;;2.63;;
18793;SDS011;29610;49.022;12.114;2023-07-29T11:25:29;8.97;;;2.07;;
18793;SDS011;29610;49.022;12.114;2023-07-29T11:28:00;8.63;;;1.90;;
18793;SDS011;29610;49.022;12.114;2023-07-29T11:30:34;8.60;;;2.80;;
18793;SDS011;29610;49.022;12.114;2023-07-29T11:33:06;10.07;;;2.70;;
18793;SDS011;29610;49.022;12.114;2023-07-29T11:35:35;7.70;;;2.50;;
18793;SDS011;29610;49.022;12.114;2023-07-29T11:38:03;8.20;;;2.17;;
18793;SDS011;29610;49.022;12.114;2023-07-29T11:40:32;7.57;;;1.90;;
18793;SDS011;29610;49.022;12.114;2023-07-29T11:43:01;6.77;;;2.13;;
18793;SDS011;29610;49.022;12.114;2023-07-29T11:45:30;7.03;;;2.10;;
18793;SDS011;29610;49.022;12.114;2023-07-29T11:48:17;7.40;;;2.13;;
18793;SDS011;29610;49.022;12.114;2023-07-29T11:50:46;7.53;;;2.10;;
18793;SDS011;29610;49.022;12.114;2023-07-29T11:53:15;7.83;;;2.60;;
18793;SDS011;29610;49.022;12.114;2023-07-29T11:55:44;7.47;;;2.50;;
18793;SDS011;29610;49.022;12.114;2023-07-29T11:58:17;8.70;;;2.23;;
18793;SDS011;29610;49.022;12.114;2023-07-29T12:00:46;10.47;;;2.40;;
18793;SDS011;29610;49.022;12.114;2023-07-29T12:03:17;7.97;;;2.80;;
18793;SDS011;29610;49.022;12.114;2023-07-29T12:05:47;8.60;;;2.33;;
18793;SDS011;29610;49.022;12.114;2023-07-29T12:08:16;7.80;;;2.13;;
18793;SDS011;29610;49.022;12.114;2023-07-29T12:10:46;6.87;;;1.87;;
18793;SDS011;29610;49.022;12.114;2023-07-29T12:13:15;8.47;;;2.00;;
18793;SDS011;29610;49.022;12.114;2023-07-29T12:15:44;6.63;;;1.80;;
18793;SDS011;29610;49.022;12.114;2023-07-29T12:18:13;8.97;;;3.20;;
18793;SDS011;29610;49.022;12.114;2023-07-29T12:20:43;7.20;;;2.03;;
18793;SDS011;29610;49.022;12.114;2023-07-29T12:23:12;7.47;;;2.00;;
18793;SDS011;29610;49.022;12.114;2023-07-29T12:25:46;6.30;;;1.50;;
18793;SDS011;29610;49.022;12.114;2023-07-29T12:28:15;6.80;;;1.63;;
18793;SDS011;29610;49.022;12.114;2023-07-29T12:30:43;6.97;;;1.63;;
18793;SDS011;29610;49.022;12.114;2023-07-29T12:33:28;8.00;;;1.60;;
18793;SDS011;29610;49.022;12.114;2023-07-29T12:35:59;6.57;;;1.70;;
18793;SDS011;29610;49.022;12.114;2023-07-29T12:38:29;8.40;;;1.83;;
18793;SDS011;29610;49.022;12.114;2023-07-29T12:40:58;6.33;;;1.43;;
18793;SDS011;29610;49.022;12.114;2023-07-29T12:43:26;7.87;;;1.70;;
18793;SDS011;29610;49.022;12.114;2023-07-29T12:45:56;6.27;;;1.37;;
18793;SDS011;29610;49.022;12.114;2023-07-29T12:48:25;6.33;;;1.50;;
18793;SDS011;29610;49.022;12.114;2023-07-29T12:50:54;7.07;;;1.70;;
18793;SDS011;29610;49.022;12.114;2023-07-29T12:53:24;6.90;;;1.60;;
18793;SDS011;29610;49.022;12.114;2023-07-29T12:55:52;7.00;;;1.73;;
18793;SDS011;29610;49.022;12.114;2023-07-29T12:58:21;7.57;;;2.00;;
18793;SDS011;29610;49.022;12.114;2023-07-29T13:00:50;6.93;;;1.40;;
18793;SDS011;29610;49.022;12.114;2023-07-29T13:03:19;7.27;;;2.33;;
18793;SDS011;29610;49.022;12.114;2023-07-29T13:05:48;7.60;;;2.33;;
18793;SDS011;29610;49.022;12.114;2023-07-29T13:08:17;6.43;;;1.50;;
18793;SDS011;29610;49.022;12.114;2023-07-29T13:10:47;7.03;;;1.80;;
18793;SDS011;29610;49.022;12.114;2023-07-29T13:13:15;8.50;;;2.37;;
18793;SDS011;29610;49.022;12.114;2023-07-29T13:15:44;7.00;;;2.40;;
18793;SDS011;29610;49.022;12.114;2023-07-29T13:18:15;10.43;;;4.00;;
18793;SDS011;29610;49.022;12.114;2023-07-29T13:20:44;7.73;;;2.47;;
18793;SDS011;29610;49.022;12.114;2023-07-29T13:23:12;7.37;;;1.40;;
18793;SDS011;29610;49.022;12.114;2023-07-29T13:25:42;8.40;;;2.10;;
18793;SDS011;29610;49.022;12.114;2023-07-29T13:28:12;7.00;;;2.00;;
18793;SDS011;29610;49.022;12.114;2023-07-29T13:30:41;6.50;;;1.53;;
18793;SDS011;29610;49.022;12.114;2023-07-29T13:33:10;6.70;;;1.60;;
18793;SDS011;29610;49.022;12.114;2023-07-29T13:35:39;7.13;;;1.60;;
18793;SDS011;29610;49.022;12.114;2023-07-29T13:38:08;7.00;;;1.93;;
18793;SDS011;29610;49.022;12.114;2023-07-29T13:40:37;7.17;;;2.00;;
18793;SDS011;29610;49.022;12.114;2023-07-29T13:43:06;9.23;;;1.70;;
18793;SDS011;29610;49.022;12.114;2023-07-29T13:45:36;6.73;;;1.53;;
18793;SDS011;29610;49.022;12.114;2023-07-29T13:48:05;7.20;;;1.60;;
18793;SDS011;29610;49.022;12.114;2023-07-29T13:50:34;7.37;;;1.80;;
18793;SDS011;29610;49.022;12.114;2023-07-29T13:53:03;6.50;;;1.20;;
18793;SDS011;29610;49.022;12.114;2023-07-29T13:55:32;6.40;;;1.43;;
18793;SDS011;29610;49.022;12.114;2023-07-29T13:58:00;6.80;;;1.60;;
18793;SDS011;29610;49.022;12.114;2023-07-29T14:00:29;6.63;;;1.77;;
18793;SDS011;29610;49.022;12.114;2023-07-29T14:02:59;6.13;;;1.43;;
18793;SDS011;29610;49.022;12.114;2023-07-29T14:05:28;6.40;;;1.30;;
18793;SDS011;29610;49.022;12.114;2023-07-29T14:07:56;5.90;;;1.20;;
18793;SDS011;29610;49.022;12.114;2023-07-29T14:10:25;6.90;;;1.40;;
18793;SDS011;29610;49.022;12.114;2023-07-29T14:12:54;6.40;;;1.37;;
18793;SDS011;29610;49.022;12.114;2023-07-29T14:15:23;7.00;;;1.70;;
18793;SDS011;29610;49.022;12.114;2023-07-29T14:17:51;6.47;;;1.47;;
18793;SDS011;29610;49.022;12.114;2023-07-29T14:20:21;6.10;;;1.23;;
18793;SDS011;29610;49.022;12.114;2023-07-29T14:22:50;11.40;;;1.90;;
18793;SDS011;29610;49.022;12.114;2023-07-29T14:25:19;6.40;;;1.40;;
18793;SDS011;29610;49.022;12.114;2023-07-29T14:27:47;6.40;;;1.40;;
18793;SDS011;29610;49.022;12.114;2023-07-29T14:30:16;7.07;;;2.00;;
18793;SDS011;29610;49.022;12.114;2023-07-29T14:32:45;7.17;;;1.30;;
18793;SDS011;29610;49.022;12.114;2023-07-29T14:35:14;6.60;;;1.97;;
18793;SDS011;29610;49.022;12.114;2023-07-29T14:37:44;7.33;;;1.70;;
18793;SDS011;29610;49.022;12.114;2023-07-29T14:40:12;6.47;;;1.60;;